M I D A S
Marine Information and Data Acquisition System
Tripno 357 of the Zeeleeuw from 2002-11-08 08:37:10 to 2002-11-08 11:57:04
Back to CruiseResearch ActivitiesStationsMapUnderway DataData graphs

EquipmentUnitsComment
TimeDGPSUTC
LatitudeDGPSDM.mWGS84
LongitudeDGPSDM.mWGS84
TemperatureSBE03/SBE38deg celciusITS90
ConductivitySBE21S/mITS90
SalinitySBE21 Practical Salinity Units
ChlorophylAChelsea fluorimeterg/lCalibrated in Aceton
Missing or incorrect values are displayed as -999
Sea surface data collected by the RV Zeeleeuw from 2002-11-08 08:37:10 to 2002-11-08 11:57:04
                                                                                    Next 1000 lines
Time Latitude Longitude Temperature Conductivity Salinity ChlorophylA
2002-11-08 08:37:19 51°13.718 2°55.751 -999 3.741841 27.411349  
2002-11-08 08:37:23 51°13.721 2°55.749 -999 3.741947 27.412682  
2002-11-08 08:37:27 51°13.724 2°55.745 -999 3.741947 27.413158  
2002-11-08 08:37:33 51°13.729 2°55.74 -999 3.741947 27.413158  
2002-11-08 08:37:38 51°13.734 2°55.734 -999 3.741736 27.411919  
2002-11-08 08:37:43 51°13.738 2°55.729 -999 3.741736 27.411919  
2002-11-08 08:37:47 51°13.742 2°55.725 -999 3.741841 27.412301  
2002-11-08 08:37:53 51°13.748 2°55.718 -999 3.741736 27.411919  
2002-11-08 08:37:58 51°13.753 2°55.712 -999 3.741841 27.411825  
2002-11-08 08:38:03 51°13.759 2°55.706 -999 3.741736 27.410968  
2002-11-08 08:38:09 51°13.765 2°55.699 -999 3.741525 27.40973  
2002-11-08 08:38:11 51°13.767 2°55.696 -999 3.741525 27.40973  
2002-11-08 08:38:18 51°13.776 2°55.688 -999 3.741736 27.410968  
2002-11-08 08:38:23 51°13.782 2°55.682 -999 3.741736 27.412395  
2002-11-08 08:38:27 51°13.787 2°55.677 -999 3.741631 27.41249  
2002-11-08 08:38:33 51°13.795 2°55.669 -999 3.741525 27.412109  
2002-11-08 08:38:38 51°13.802 2°55.663 -999 3.741631 27.412966  
2002-11-08 08:38:43 51°13.809 2°55.656 -999 3.741631 27.412966  
2002-11-08 08:38:48 51°13.816 2°55.65 -999 3.741525 27.412585  
2002-11-08 08:38:52 51°13.823 2°55.644 -999 3.741525 27.413061  
2002-11-08 08:38:58 51°13.832 2°55.637 -999 3.741525 27.413061  
2002-11-08 08:39:03 51°13.84 2°55.63 -999 3.74142 27.412203  
2002-11-08 08:39:08 51°13.849 2°55.624 -999 3.741525 27.413061  
2002-11-08 08:39:13 51°13.858 2°55.617 -999 3.741525 27.413061  
2002-11-08 08:39:18 51°13.867 2°55.611 -999 3.74142 27.412679  
2002-11-08 08:39:23 51°13.876 2°55.604 -999 3.741525 27.413537  
2002-11-08 08:39:29 51°13.887 2°55.596 -999 3.74142 27.413155  
2002-11-08 08:39:33 51°13.894 2°55.59 -999 3.741315 27.41325  
2002-11-08 08:39:38 51°13.903 2°55.583 -999 3.741315 27.41325  
2002-11-08 08:39:43 51°13.913 2°55.576 -999 3.741315 27.41325  
2002-11-08 08:39:47 51°13.92 2°55.57 -999 3.741209 27.413821  
2002-11-08 08:39:53 51°13.931 2°55.561 -999 3.741315 27.41563  
2002-11-08 08:39:58 51°13.941 2°55.554 -999 3.741315 27.416582  
2002-11-08 08:40:03 51°13.951 2°55.547 -999 3.741209 27.417153  
2002-11-08 08:40:07 51°13.959 2°55.541 -999 3.740999 27.416391  
2002-11-08 08:40:13 51°13.97 2°55.532 -999 3.740999 27.416391  
2002-11-08 08:40:18 51°13.98 2°55.526 -999 3.741104 27.417725  
2002-11-08 08:40:23 51°13.99 2°55.519 -999 3.741104 27.417248  
2002-11-08 08:40:28 51°14 2°55.511 -999 3.741104 27.416772  
2002-11-08 08:40:33 51°14.01 2°55.504 -999 3.740998 27.414487  
2002-11-08 08:40:38 51°14.02 2°55.497 -999 3.740998 27.412582  
2002-11-08 08:40:43 51°14.03 2°55.489 -999 3.740998 27.412582  
2002-11-08 08:40:48 51°14.04 2°55.482 -999 3.740893 27.410773  
2002-11-08 08:40:53 51°14.05 2°55.474 -999 3.740893 27.410297  
2002-11-08 08:40:58 51°14.06 2°55.467 -999 3.740788 27.40944  
2002-11-08 08:41:03 51°14.07 2°55.459 -999 3.740788 27.409916  
2002-11-08 08:41:07 51°14.078 2°55.452 -999 3.740788 27.411344  
2002-11-08 08:41:13 51°14.09 2°55.443 -999 3.740788 27.411344  
2002-11-08 08:41:19 51°14.102 2°55.434 -999 3.740682 27.412867  
2002-11-08 08:41:23 51°14.11 2°55.428 -999 3.740682 27.413819  
2002-11-08 08:41:29 51°14.121 2°55.419 -999 3.740577 27.413438  
2002-11-08 08:41:33 51°14.129 2°55.412 -999 3.740682 27.415247  
2002-11-08 08:41:38 51°14.139 2°55.404 -999 3.740577 27.414866  
2002-11-08 08:41:43 51°14.148 2°55.395 -999 3.740577 27.414866  
2002-11-08 08:41:49 51°14.16 2°55.384 -999 3.740577 27.414866  
2002-11-08 08:41:53 51°14.168 2°55.377 -999 3.740472 27.414009  
2002-11-08 08:41:58 51°14.177 2°55.367 -999 3.740472 27.414485  
2002-11-08 08:42:03 51°14.186 2°55.357 -999 3.740472 27.414009  
2002-11-08 08:42:09 51°14.196 2°55.345 -999 3.740472 27.414485  
2002-11-08 08:42:13 51°14.203 2°55.336 -999 3.740472 27.414485  
2002-11-08 08:42:18 51°14.211 2°55.326 -999 3.740366 27.414104  
2002-11-08 08:42:23 51°14.22 2°55.315 -999 3.740366 27.414104  
2002-11-08 08:42:28 51°14.228 2°55.303 -999 3.740472 27.414961  
2002-11-08 08:42:33 51°14.236 2°55.291 -999 3.740472 27.415437  
2002-11-08 08:42:38 51°14.243 2°55.279 -999 3.740261 27.413246  
2002-11-08 08:42:43 51°14.25 2°55.266 -999 3.740261 27.413246  
2002-11-08 08:42:47 51°14.256 2°55.256 -999 3.740366 27.41458  
2002-11-08 08:42:53 51°14.266 2°55.241 -999 3.740366 27.415056  
2002-11-08 08:42:58 51°14.274 2°55.227 -999 3.740261 27.414199  
2002-11-08 08:43:03 51°14.282 2°55.213 -999 3.740261 27.414675  
2002-11-08 08:43:08 51°14.29 2°55.199 -999 3.740261 27.414675  
2002-11-08 08:43:12 51°14.297 2°55.187 -999 3.740261 27.414675  
2002-11-08 08:43:18 51°14.307 2°55.169 -999 3.74005 27.413436  
2002-11-08 08:43:23 51°14.315 2°55.153 -999 3.739945 27.413055  
2002-11-08 08:43:28 51°14.324 2°55.138 -999 3.74005 27.413912  
2002-11-08 08:43:33 51°14.332 2°55.122 -999 3.740261 27.415151  
2002-11-08 08:43:38 51°14.341 2°55.107 -999 3.739945 27.413055  
2002-11-08 08:43:43 51°14.349 2°55.092 -999 3.739945 27.413055  
2002-11-08 08:43:47 51°14.356 2°55.079 -999 3.74005 27.415817  
2002-11-08 08:43:52 51°14.365 2°55.064 -999 3.74005 27.417246  
2002-11-08 08:43:58 51°14.375 2°55.044 -999 3.740156 27.419533  
2002-11-08 08:44:03 51°14.383 2°55.027 -999 3.740156 27.420009  
2002-11-08 08:44:06 51°14.387 2°55.016 -999 3.740261 27.417056  
2002-11-08 08:44:14 51°14.396 2°54.986 -999 3.740261 27.417056  
2002-11-08 08:44:18 51°14.4 2°54.971 -999 3.740472 27.413057  
2002-11-08 08:44:23 51°14.403 2°54.951 -999 3.74005 27.406295  
2002-11-08 08:44:28 51°14.406 2°54.931 -999 3.739839 27.405057  
2002-11-08 08:44:33 51°14.407 2°54.911 -999 3.739945 27.408294  
2002-11-08 08:44:38 51°14.408 2°54.89 -999 3.740155 27.413341  
2002-11-08 08:44:43 51°14.407 2°54.869 -999 3.740155 27.413341  
2002-11-08 08:44:46 51°14.407 2°54.856 -999 3.739945 27.417818  
2002-11-08 08:44:53 51°14.405 2°54.825 -999 3.739945 27.4202  
2002-11-08 08:44:59 51°14.403 2°54.796 -999 3.739839 27.421248  
2002-11-08 08:45:03 51°14.402 2°54.776 -999 3.74005 27.422964  
2002-11-08 08:45:09 51°14.401 2°54.744 -999 3.74005 27.421058  
2002-11-08 08:45:14 51°14.4 2°54.718 -999 3.74005 27.421058  
2002-11-08 08:45:18 51°14.399 2°54.696 -999 3.739734 27.417532  
2002-11-08 08:45:23 51°14.397 2°54.669 -999 3.739839 27.416007  
2002-11-08 08:45:28 51°14.395 2°54.641 -999 3.739839 27.415055  
2002-11-08 08:45:32 51°14.392 2°54.618 -999 3.739734 27.414197  
2002-11-08 08:45:38 51°14.388 2°54.584 -999 3.739629 27.41334  
2002-11-08 08:45:43 51°14.384 2°54.556 -999 3.739629 27.41334  
2002-11-08 08:45:47 51°14.381 2°54.534 -999 3.739839 27.415055  
2002-11-08 08:45:53 51°14.376 2°54.5 -999 3.739734 27.416579  
2002-11-08 08:45:58 51°14.371 2°54.472 -999 3.739629 27.417627  
2002-11-08 08:46:03 51°14.365 2°54.444 -999 3.739523 27.418675  
2002-11-08 08:46:06 51°14.362 2°54.428 -999 3.739523 27.419628  
2002-11-08 08:46:13 51°14.353 2°54.39 -999 3.739523 27.419628  
2002-11-08 08:46:18 51°14.345 2°54.364 -999 3.739313 27.417912  
2002-11-08 08:46:23 51°14.337 2°54.337 -999 3.739418 27.41877  
2002-11-08 08:46:27 51°14.331 2°54.316 -999 3.739313 27.417912  
2002-11-08 08:46:34 51°14.318 2°54.281 -999 3.739313 27.416959  
2002-11-08 08:46:38 51°14.31 2°54.261 -999 3.739523 27.418675  
2002-11-08 08:46:43 51°14.301 2°54.235 -999 3.739523 27.418675  
2002-11-08 08:46:48 51°14.291 2°54.21 -999 3.739418 27.417341  
2002-11-08 08:46:52 51°14.283 2°54.19 -999 3.739207 27.416578  
2002-11-08 08:46:58 51°14.272 2°54.16 -999 3.739313 27.416959  
2002-11-08 08:47:03 51°14.262 2°54.135 -999 3.739313 27.418389  
2002-11-08 08:47:08 51°14.252 2°54.11 -999 3.739207 27.414672  
2002-11-08 08:47:13 51°14.242 2°54.084 -999 3.739207 27.414672  
2002-11-08 08:47:18 51°14.233 2°54.059 -999 3.739102 27.410957  
2002-11-08 08:47:23 51°14.223 2°54.033 -999 3.739418 27.411148  
2002-11-08 08:47:28 51°14.214 2°54.007 -999 3.739102 27.408576  
2002-11-08 08:47:33 51°14.206 2°53.981 -999 3.739102 27.409528  
2002-11-08 08:47:38 51°14.197 2°53.955 -999 3.739418 27.414482  
2002-11-08 08:47:43 51°14.189 2°53.928 -999 3.739418 27.414482  
2002-11-08 08:47:48 51°14.182 2°53.9 -999 3.738996 27.414863  
2002-11-08 08:47:53 51°14.173 2°53.874 -999 3.739207 27.421344  
2002-11-08 08:47:58 51°14.165 2°53.847 -999 3.739313 27.425539  
2002-11-08 08:48:03 51°14.158 2°53.82 -999 3.738997 27.424872  
2002-11-08 08:48:08 51°14.149 2°53.793 -999 3.738997 27.424872  
2002-11-08 08:48:13 51°14.141 2°53.766 -999 3.738997 27.424872  
2002-11-08 08:48:18 51°14.133 2°53.738 -999 3.738891 27.42449  
2002-11-08 08:48:23 51°14.124 2°53.712 -999 3.739102 27.425253  
2002-11-08 08:48:28 51°14.116 2°53.685 -999 3.738891 27.42306  
2002-11-08 08:48:33 51°14.107 2°53.657 -999 3.738891 27.422107  
2002-11-08 08:48:38 51°14.098 2°53.63 -999 3.73868 27.419914  
2002-11-08 08:48:43 51°14.09 2°53.603 -999 3.73868 27.419914  
2002-11-08 08:48:47 51°14.083 2°53.581 -999 3.738786 27.421249  
2002-11-08 08:48:53 51°14.073 2°53.548 -999 3.73868 27.419914  
2002-11-08 08:48:58 51°14.065 2°53.521 -999 3.73868 27.419914  
2002-11-08 08:49:03 51°14.056 2°53.494 -999 3.73868 27.420867  
2002-11-08 08:49:08 51°14.048 2°53.466 -999 3.738575 27.420009  
2002-11-08 08:49:13 51°14.039 2°53.438 -999 3.738575 27.420009  
2002-11-08 08:49:18 51°14.032 2°53.41 -999 3.738259 27.417912  
2002-11-08 08:49:23 51°14.023 2°53.383 -999 3.738364 27.419723  
2002-11-08 08:49:27 51°14.017 2°53.361 -999 3.738259 27.419819  
2002-11-08 08:49:33 51°14.007 2°53.328 -999 3.738259 27.420295  
2002-11-08 08:49:38 51°13.998 2°53.3 -999 3.738153 27.419914  
2002-11-08 08:49:43 51°13.991 2°53.272 -999 3.738153 27.419914  
2002-11-08 08:49:48 51°13.982 2°53.244 -999 3.738048 27.420486  
2002-11-08 08:49:53 51°13.974 2°53.216 -999 3.737943 27.419628  
2002-11-08 08:49:58 51°13.965 2°53.188 -999 3.737837 27.419247  
2002-11-08 08:50:04 51°13.956 2°53.154 -999 3.737837 27.41877  
2002-11-08 08:50:08 51°13.949 2°53.132 -999 3.737837 27.419247  
2002-11-08 08:50:13 51°13.941 2°53.104 -999 3.737837 27.419247  
2002-11-08 08:50:19 51°13.93 2°53.07 -999 3.737732 27.418866  
2002-11-08 08:50:24 51°13.923 2°53.042 -999 3.737732 27.418866  
2002-11-08 08:50:29 51°13.914 2°53.014 -999 3.737521 27.418103  
2002-11-08 08:50:34 51°13.905 2°52.986 -999 3.737521 27.419056  
2002-11-08 08:50:39 51°13.897 2°52.958 -999 3.737521 27.419056  
2002-11-08 08:50:44 51°13.888 2°52.93 -999 3.737521 27.419056  
2002-11-08 08:50:47 51°13.883 2°52.913 -999 3.73731 27.419247  
2002-11-08 08:50:54 51°13.872 2°52.874 -999 3.737205 27.418866  
2002-11-08 08:50:59 51°13.863 2°52.845 -999 3.737205 27.420297  
2002-11-08 08:51:04 51°13.855 2°52.817 -999 3.737205 27.420297  
2002-11-08 08:51:07 51°13.85 2°52.8 -999 3.736889 27.419153  
2002-11-08 08:51:14 51°13.838 2°52.761 -999 3.736889 27.419153  
2002-11-08 08:51:19 51°13.83 2°52.733 -999 3.7371 27.420392  
2002-11-08 08:51:24 51°13.822 2°52.704 -999 3.736994 27.419534  
2002-11-08 08:51:28 51°13.815 2°52.682 -999 3.736889 27.41963  
2002-11-08 08:51:34 51°13.805 2°52.648 -999 3.736994 27.419534  
2002-11-08 08:51:39 51°13.796 2°52.62 -999 3.736362 27.416292  
2002-11-08 08:51:44 51°13.789 2°52.591 -999 3.736362 27.416292  
2002-11-08 08:51:48 51°13.782 2°52.57 -999 3.736678 27.419821  
2002-11-08 08:51:54 51°13.772 2°52.536 -999 3.736467 27.416196  
2002-11-08 08:51:59 51°13.763 2°52.508 -999 3.736467 27.412858  
2002-11-08 08:52:04 51°13.756 2°52.479 -999 3.736362 27.40771  
2002-11-08 08:52:08 51°13.748 2°52.458 -999 3.736151 27.40647  
2002-11-08 08:52:14 51°13.739 2°52.423 -999 3.736151 27.40647  
2002-11-08 08:52:19 51°13.73 2°52.396 -999 3.736362 27.412  
2002-11-08 08:52:23 51°13.724 2°52.373 -999 3.736151 27.415052  
2002-11-08 08:52:28 51°13.715 2°52.345 -999 3.735941 27.419536  
2002-11-08 08:52:34 51°13.706 2°52.311 -999 3.736046 27.42469  
2002-11-08 08:52:38 51°13.699 2°52.289 -999 3.736046 27.424212  
2002-11-08 08:52:44 51°13.689 2°52.255 -999 3.736046 27.424212  
2002-11-08 08:52:49 51°13.682 2°52.227 -999 3.73573 27.419727  
2002-11-08 08:52:54 51°13.673 2°52.199 -999 3.73573 27.416865  
2002-11-08 08:52:59 51°13.665 2°52.171 -999 3.735624 27.41219  
2002-11-08 08:53:03 51°13.658 2°52.148 -999 3.73573 27.409711  
2002-11-08 08:53:08 51°13.649 2°52.121 -999 3.735414 27.406183  
2002-11-08 08:53:14 51°13.64 2°52.087 -999 3.735414 27.406183  
2002-11-08 08:53:19 51°13.632 2°52.059 -999 3.735519 27.407518  
2002-11-08 08:53:24 51°13.623 2°52.031 -999 3.735519 27.409425  
2002-11-08 08:53:28 51°13.617 2°52.008 -999 3.735308 27.410569  
2002-11-08 08:53:34 51°13.606 2°51.975 28.052727 3.735203 27.412095  
2002-11-08 08:53:38 51°13.599 2°51.954 26.624334 3.735098 27.416484  
2002-11-08 08:53:44 51°13.588 2°51.92 26.624334 3.735098 27.416484  
2002-11-08 08:53:48 51°13.581 2°51.898 27.239074 3.734465 27.414195  
2002-11-08 08:53:54 51°13.57 2°51.865 26.978553 3.734465 27.419445  
2002-11-08 08:53:59 51°13.56 2°51.839 27.815172 3.734571 27.424601  
2002-11-08 08:54:03 51°13.553 2°51.816 27.799187 3.734571 27.424124  
2002-11-08 08:54:09 51°13.542 2°51.784 26.654265 3.734465 27.422787  
2002-11-08 08:54:14 51°13.533 2°51.756 26.654265 3.734465 27.422787  
2002-11-08 08:54:19 51°13.523 2°51.729 27.125648 3.734465 27.419445  
2002-11-08 08:54:24 51°13.514 2°51.702 28.13922 3.734465 27.414195  
2002-11-08 08:54:28 51°13.506 2°51.681 27.99745 3.734149 27.405895  
2002-11-08 08:54:32 51°13.498 2°51.659 27.761318 3.734465 27.404178  
2002-11-08 08:54:39 51°13.485 2°51.621 26.530441 3.733938 27.398933  
2002-11-08 08:54:43 51°13.477 2°51.599 26.530441 3.733938 27.398933  
2002-11-08 08:54:48 51°13.468 2°51.572 28.581481 3.734254 27.401508  
2002-11-08 08:54:54 51°13.456 2°51.54 27.584364 3.733938 27.40227  
2002-11-08 08:54:59 51°13.446 2°51.513 27.77404 3.734044 27.407421  
2002-11-08 08:55:04 51°13.437 2°51.486 27.578752 3.733938 27.410856  
2002-11-08 08:55:08 51°13.429 2°51.465 27.007239 3.734044 27.416009  
2002-11-08 08:55:14 51°13.418 2°51.432 27.007239 3.734044 27.416009  
2002-11-08 08:55:19 51°13.408 2°51.405 27.660627 3.733939 27.417537  
2002-11-08 08:55:24 51°13.398 2°51.378 27.432844 3.733833 27.41811  
2002-11-08 08:55:29 51°13.389 2°51.351 28.364391 3.734044 27.419351  
2002-11-08 08:55:32 51°13.382 2°51.336 26.948422 3.733939 27.418969  
2002-11-08 08:55:39 51°13.369 2°51.297 27.997921 3.734149 27.419255  
2002-11-08 08:55:43 51°13.362 2°51.276 27.997921 3.734149 27.419255  
2002-11-08 08:55:48 51°13.352 2°51.248 26.88441 3.733728 27.414865  
2002-11-08 08:55:54 51°13.34 2°51.216 27.784616 3.733938 27.416105  
2002-11-08 08:55:59 51°13.331 2°51.189 27.636671 3.733833 27.414769  
2002-11-08 08:56:04 51°13.321 2°51.163 27.246981 3.733938 27.416105  
2002-11-08 08:56:08 51°13.314 2°51.14 28.580115 3.733833 27.414769  
2002-11-08 08:56:14 51°13.302 2°51.109 28.580115 3.733833 27.414769  
2002-11-08 08:56:19 51°13.293 2°51.081 27.730485 3.733728 27.414865  
2002-11-08 08:56:24 51°13.283 2°51.054 28.00977 3.733833 27.415246  
2002-11-08 08:56:28 51°13.275 2°51.033 28.052655 3.733833 27.415724  
2002-11-08 08:56:32 51°13.267 2°51.01 26.426177 3.733728 27.414865  
2002-11-08 08:56:39 51°13.253 2°50.972 26.812868 3.733517 27.413147  
2002-11-08 08:56:44 51°13.243 2°50.944 26.812868 3.733517 27.413147  
2002-11-08 08:56:48 51°13.235 2°50.922 27.777929 3.733622 27.414483  
2002-11-08 08:56:52 51°13.227 2°50.9 27.647704 3.733938 27.416582  
2002-11-08 08:56:59 51°13.213 2°50.86 27.055844 3.733622 27.414006  
2002-11-08 08:57:04 51°13.203 2°50.832 29.308353 3.733622 27.41496  
2002-11-08 08:57:07 51°13.197 2°50.814 27.91355 3.733517 27.414579  
2002-11-08 08:57:14 51°13.183 2°50.775 27.91355 3.733517 27.414579  
2002-11-08 08:57:19 51°13.173 2°50.747 28.609162 3.733517 27.415056  
2002-11-08 08:57:23 51°13.165 2°50.724 27.527753 3.733517 27.416011  
2002-11-08 08:57:27 51°13.157 2°50.7 28.599852 3.733306 27.414293  
2002-11-08 08:57:34 51°13.143 2°50.66 28.783423 3.733306 27.415248  
2002-11-08 08:57:38 51°13.135 2°50.637 27.157723 3.733306 27.41477  
2002-11-08 08:57:43 51°13.125 2°50.608 27.157723 3.733306 27.41477  
2002-11-08 08:57:48 51°13.115 2°50.579 26.849825 3.73299 27.412671  
2002-11-08 08:57:54 51°13.103 2°50.545 27.920841 3.733095 27.414484  
2002-11-08 08:57:59 51°13.093 2°50.515 27.403044 3.733095 27.414007  
2002-11-08 08:58:03 51°13.085 2°50.492 27.622615 3.73299 27.414103  
2002-11-08 08:58:08 51°13.074 2°50.463 27.514223 3.73299 27.41458  
2002-11-08 08:58:12 51°13.066 2°50.44 27.514223 3.73299 27.41458  
2002-11-08 08:58:19 51°13.052 2°50.4 27.801875 3.732779 27.413817  
2002-11-08 08:58:24 51°13.042 2°50.371 27.530233 3.732779 27.414294  
2002-11-08 08:58:28 51°13.034 2°50.348 29.320708 3.732674 27.413435  
2002-11-08 08:58:32 51°13.026 2°50.324 27.624763 3.732674 27.413913  
2002-11-08 08:58:39 51°13.011 2°50.283 27.559764 3.732463 27.412672  
2002-11-08 08:58:44 51°13.001 2°50.254 27.559764 3.732463 27.412672  
2002-11-08 08:58:48 51°12.992 2°50.231 28.719531 3.732463 27.413149  
2002-11-08 08:58:54 51°12.981 2°50.196 27.803692 3.732463 27.413149  
2002-11-08 08:58:59 51°12.97 2°50.167 27.68523 3.732358 27.413245  
2002-11-08 08:59:03 51°12.962 2°50.143 28.092657 3.732358 27.4142  
2002-11-08 08:59:08 51°12.951 2°50.114 27.463326 3.732252 27.412863  
2002-11-08 08:59:14 51°12.939 2°50.079 27.463326 3.732252 27.412863  
2002-11-08 08:59:19 51°12.929 2°50.05 28.242735 3.732252 27.413818  
2002-11-08 08:59:23 51°12.921 2°50.026 28.207367 3.732042 27.413055  
2002-11-08 08:59:28 51°12.911 2°49.997 28.530839 3.732042 27.412578  
2002-11-08 08:59:34 51°12.898 2°49.962 27.440475 3.731936 27.412673  
2002-11-08 08:59:39 51°12.888 2°49.932 28.589391 3.732042 27.413533  
2002-11-08 08:59:43 51°12.879 2°49.909 28.589391 3.732042 27.413533  
2002-11-08 08:59:48 51°12.868 2°49.88 28.769436 3.731936 27.413629  
2002-11-08 08:59:54 51°12.856 2°49.845 28.514322 3.731936 27.413151  
2002-11-08 08:59:59 51°12.846 2°49.815 26.922434 3.73162 27.411528  
2002-11-08 09:00:03 51°12.837 2°49.792 28.41284 3.73162 27.412006  
2002-11-08 09:00:08 51°12.827 2°49.763 28.497262 3.73162 27.412006  
2002-11-08 09:00:12 51°12.819 2°49.739 28.497262 3.73162 27.412006  
2002-11-08 09:00:19 51°12.805 2°49.698 27.432625 3.731409 27.411242  
2002-11-08 09:00:23 51°12.796 2°49.675 28.507016 3.731409 27.41172  
2002-11-08 09:00:29 51°12.784 2°49.64 29.709637 3.731409 27.41172  
2002-11-08 09:00:33 51°12.775 2°49.616 27.953264 3.731199 27.410479  
2002-11-08 09:00:39 51°12.763 2°49.58 28.192188 3.731304 27.410861  
2002-11-08 09:00:43 51°12.755 2°49.557 28.192188 3.731304 27.410861  
2002-11-08 09:00:48 51°12.745 2°49.528 27.545364 3.730988 27.409715  
2002-11-08 09:00:52 51°12.736 2°49.505 27.451609 3.731199 27.411912  
2002-11-08 09:00:59 51°12.722 2°49.463 27.181687 3.730883 27.409333  
2002-11-08 09:01:04 51°12.712 2°49.434 28.57526 3.730883 27.410766  
2002-11-08 09:01:08 51°12.704 2°49.411 27.993138 3.730883 27.410766  
2002-11-08 09:01:12 51°12.696 2°49.387 27.993138 3.730883 27.410766  
2002-11-08 09:01:19 51°12.681 2°49.346 27.931578 3.730777 27.409907  
2002-11-08 09:01:23 51°12.673 2°49.322 26.493287 3.730672 27.410003  
2002-11-08 09:01:28 51°12.663 2°49.293 27.483215 3.730672 27.409525  
2002-11-08 09:01:34 51°12.651 2°49.258 27.365119 3.730461 27.407806  
2002-11-08 09:01:39 51°12.641 2°49.228 27.660227 3.730461 27.407806  
2002-11-08 09:01:43 51°12.632 2°49.205 27.660227 3.730461 27.407806  
2002-11-08 09:01:48 51°12.623 2°49.175 27.356713 3.730356 27.406947  
2002-11-08 09:01:53 51°12.612 2°49.146 27.930707 3.730356 27.408857  
2002-11-08 09:01:59 51°12.601 2°49.11 28.453802 3.730356 27.407902  
2002-11-08 09:02:03 51°12.592 2°49.088 27.807143 3.729829 27.407903  
2002-11-08 09:02:07 51°12.584 2°49.063 27.800858 3.729934 27.411152  
2002-11-08 09:02:14 51°12.57 2°49.023 27.800858 3.729934 27.411152  
2002-11-08 09:02:19 51°12.56 2°48.993 27.533952 3.729829 27.412682  
2002-11-08 09:02:24 51°12.549 2°48.964 26.172428 3.729934 27.413541  
2002-11-08 09:02:28 51°12.542 2°48.94 26.629723 3.729723 27.410866  
2002-11-08 09:02:32 51°12.533 2°48.917 26.547884 3.729618 27.40714  
2002-11-08 09:02:39 51°12.519 2°48.876 26.263885 3.729618 27.403796  
2002-11-08 09:02:44 51°12.51 2°48.846 26.263885 3.729618 27.403796  
2002-11-08 09:02:48 51°12.501 2°48.822 26.022044 3.729407 27.39969  
2002-11-08 09:02:52 51°12.494 2°48.798 26.715085 3.729302 27.397398  
2002-11-08 09:02:59 51°12.479 2°48.757 28.976311 3.729302 27.397875  
2002-11-08 09:03:04 51°12.469 2°48.728 27.681919 3.729091 27.398544  
2002-11-08 09:03:07 51°12.463 2°48.711 26.888382 3.729196 27.401791  
2002-11-08 09:03:14 51°12.448 2°48.67 26.888382 3.729196 27.401791  
2002-11-08 09:03:19 51°12.438 2°48.641 27.703495 3.728986 27.404371  
2002-11-08 09:03:23 51°12.43 2°48.617 28.203247 3.728986 27.407237  
2002-11-08 09:03:28 51°12.42 2°48.587 28.377047 3.729091 27.409531  
2002-11-08 09:03:32 51°12.412 2°48.564 27.227285 3.72867 27.408481  
2002-11-08 09:03:39 51°12.398 2°48.523 27.992522 3.728881 27.410679  
2002-11-08 09:03:43 51°12.389 2°48.5 27.992522 3.728881 27.410679  
2002-11-08 09:03:48 51°12.38 2°48.47 27.043402 3.728775 27.409819  
2002-11-08 09:03:54 51°12.367 2°48.435 27.545583 3.728564 27.407621  
2002-11-08 09:03:59 51°12.357 2°48.405 28.403758 3.728775 27.408385  
2002-11-08 09:04:04 51°12.347 2°48.376 27.872291 3.72867 27.405614  
2002-11-08 09:04:08 51°12.339 2°48.353 27.278966 3.728564 27.40571  
2002-11-08 09:04:13 51°12.329 2°48.324 27.278966 3.728564 27.40571  
2002-11-08 09:04:19 51°12.316 2°48.289 37.0141 3.728775 27.406474  
2002-11-08 09:04:23 51°12.309 2°48.265 26.279054 3.728354 27.403512  
2002-11-08 09:04:28 51°12.299 2°48.236 27.482412 3.72867 27.407047  
2002-11-08 09:04:32 51°12.29 2°48.213 26.94052 3.728459 27.406283  
2002-11-08 09:04:39 51°12.276 2°48.172 27.150723 3.728354 27.406379  
2002-11-08 09:04:44 51°12.267 2°48.142 27.150723 3.728354 27.406379  
2002-11-08 09:04:48 51°12.258 2°48.119 26.122012 3.728459 27.408195  
2002-11-08 09:04:54 51°12.247 2°48.084 26.786832 3.728248 27.405997  
2002-11-08 09:04:59 51°12.236 2°48.054 26.929493 3.728143 27.406093  
2002-11-08 09:05:03 51°12.228 2°48.031 26.933757 3.728248 27.40552  
2002-11-08 09:05:08 51°12.218 2°48.001 27.41254 3.728248 27.405042  
2002-11-08 09:05:14 51°12.208 2°47.965 27.41254 3.728248 27.405042  
2002-11-08 09:05:19 51°12.198 2°47.935 26.781454 3.728037 27.404756  
2002-11-08 09:05:23 51°12.192 2°47.911 26.930338 3.728037 27.4038  
2002-11-08 09:05:28 51°12.182 2°47.881 27.080024 3.728037 27.404756  
2002-11-08 09:05:34 51°12.171 2°47.845 26.655298 3.727932 27.405807  
2002-11-08 09:05:39 51°12.162 2°47.815 27.196889 3.727721 27.403132  
2002-11-08 09:05:44 51°12.155 2°47.784 27.196889 3.727721 27.403132  
2002-11-08 09:05:48 51°12.147 2°47.76 27.134411 3.727721 27.407912  
2002-11-08 09:05:52 51°12.142 2°47.735 27.770223 3.727827 27.410206  
2002-11-08 09:05:59 51°12.131 2°47.691 27.433027 3.727616 27.413268  
2002-11-08 09:06:03 51°12.124 2°47.667 26.768745 3.727616 27.41566  
2002-11-08 09:06:08 51°12.117 2°47.636 27.488359 3.7273 27.4126  
2002-11-08 09:06:14 51°12.108 2°47.598 27.488359 3.7273 27.4126  
2002-11-08 09:06:19 51°12.101 2°47.567 27.370198 3.727405 27.410591  
2002-11-08 09:06:24 51°12.093 2°47.536 27.246029 3.727194 27.40648  
2002-11-08 09:06:28 51°12.088 2°47.51 27.762663 3.727194 27.400266  
2002-11-08 09:06:34 51°12.079 2°47.473 27.478398 3.726773 27.394437  
2002-11-08 09:06:39 51°12.072 2°47.441 27.816661 3.726984 27.394724  
2002-11-08 09:06:43 51°12.066 2°47.416 27.816661 3.726984 27.394724  
2002-11-08 09:06:48 51°12.059 2°47.385 28.559509 3.726773 27.393482  
2002-11-08 09:06:52 51°12.053 2°47.36 27.029416 3.726773 27.396348  
2002-11-08 09:06:59 51°12.043 2°47.316 27.425797 3.726668 27.400745  
2002-11-08 09:07:03 51°12.038 2°47.291 28.404912 3.726562 27.403709  
2002-11-08 09:07:08 51°12.03 2°47.259 27.661756 3.726562 27.408013  
2002-11-08 09:07:14 51°12.021 2°47.222 27.661756 3.726562 27.408013  
2002-11-08 09:07:19 51°12.014 2°47.19 27.899473 3.726457 27.410501  
2002-11-08 09:07:23 51°12.008 2°47.166 27.772041 3.726668 27.414136  
2002-11-08 09:07:28 51°12 2°47.134 27.062302 3.726352 27.411076  
2002-11-08 09:07:34 51°11.991 2°47.097 28.041139 3.726246 27.410694  
2002-11-08 09:07:39 51°11.984 2°47.065 27.800858 3.726352 27.409641  
2002-11-08 09:07:44 51°11.977 2°47.034 27.800858 3.726352 27.409641  
2002-11-08 09:07:48 51°11.97 2°47.009 27.39066 3.726141 27.40792  
2002-11-08 09:07:52 51°11.965 2°46.983 28.074849 3.726457 27.408588  
2002-11-08 09:07:59 51°11.955 2°46.94 27.02189 3.726035 27.404668  
2002-11-08 09:08:04 51°11.948 2°46.908 27.915908 3.726035 27.405146  
2002-11-08 09:08:08 51°11.941 2°46.883 27.408742 3.72593 27.404286  
2002-11-08 09:08:14 51°11.933 2°46.845 27.408742 3.72593 27.404286  
2002-11-08 09:08:19 51°11.926 2°46.814 27.017924 3.726035 27.405146  
2002-11-08 09:08:24 51°11.919 2°46.783 28.019262 3.726035 27.406581  
2002-11-08 09:08:28 51°11.913 2°46.758 27.825306 3.726035 27.407538  
2002-11-08 09:08:34 51°11.904 2°46.72 27.507329 3.725825 27.406774  
2002-11-08 09:08:39 51°11.897 2°46.689 28.203392 3.725825 27.407252  
2002-11-08 09:08:44 51°11.89 2°46.657 28.203392 3.725825 27.407252  
2002-11-08 09:08:47 51°11.885 2°46.638 26.801195 3.725719 27.406392  
2002-11-08 09:08:53 51°11.876 2°46.601 26.353671 3.725719 27.406392  
2002-11-08 09:08:58 51°11.868 2°46.57 26.050137 3.725508 27.404671  
2002-11-08 09:09:04 51°11.86 2°46.532 27.269782 3.725825 27.408209  
2002-11-08 09:09:08 51°11.854 2°46.507 27.907419 3.725508 27.405149  
2002-11-08 09:09:14 51°11.846 2°46.469 27.907419 3.725508 27.405149  
2002-11-08 09:09:19 51°11.838 2°46.437 27.280466 3.725298 27.405342  
2002-11-08 09:09:24 51°11.831 2°46.406 27.668089 3.725403 27.406202  
2002-11-08 09:09:28 51°11.825 2°46.381 26.46096 3.725192 27.406395  
2002-11-08 09:09:34 51°11.817 2°46.343 26.8836 3.725192 27.407352  
2002-11-08 09:09:39 51°11.809 2°46.312 26.568833 3.725087 27.406491  
2002-11-08 09:09:44 51°11.802 2°46.28 26.568833 3.725087 27.406491  
2002-11-08 09:09:48 51°11.796 2°46.256 27.066816 3.725087 27.408884  
2002-11-08 09:09:54 51°11.787 2°46.218 26.797402 3.724876 27.407162  
2002-11-08 09:09:59 51°11.779 2°46.187 27.503572 3.724876 27.40812  
2002-11-08 09:10:04 51°11.772 2°46.155 27.487338 3.724982 27.408502  
2002-11-08 09:10:08 51°11.765 2°46.13 27.536395 3.724771 27.407737  
2002-11-08 09:10:12 51°11.759 2°46.105 27.536395 3.724771 27.407737  
2002-11-08 09:10:19 51°11.749 2°46.061 27.034445 3.724666 27.407355  
2002-11-08 09:10:24 51°11.742 2°46.029 27.637873 3.724771 27.408216  
2002-11-08 09:10:28 51°11.736 2°46.004 28.265233 3.724666 27.408312  
2002-11-08 09:10:34 51°11.728 2°45.966 28.141607 3.724666 27.40927  
2002-11-08 09:10:38 51°11.722 2°45.941 27.779273 3.724455 27.408027  
2002-11-08 09:10:44 51°11.713 2°45.903 27.779273 3.724455 27.408027  
2002-11-08 09:10:48 51°11.707 2°45.878 27.98955 3.724244 27.406784  
2002-11-08 09:10:53 51°11.7 2°45.847 27.873379 3.724349 27.408123  
2002-11-08 09:10:59 51°11.692 2°45.809 27.210514 3.724139 27.406402  
2002-11-08 09:11:03 51°11.686 2°45.784 28.011943 3.724033 27.407456  
2002-11-08 09:11:08 51°11.679 2°45.753 28.532674 3.724033 27.406498  
2002-11-08 09:11:14 51°11.67 2°45.716 28.532674 3.724033 27.406498  
2002-11-08 09:11:19 51°11.663 2°45.684 28.3447 3.723823 27.406691  
2002-11-08 09:11:24 51°11.656 2°45.653 27.462195 3.723928 27.407552  
2002-11-08 09:11:28 51°11.65 2°45.628 28.37337 3.723612 27.405448  
2002-11-08 09:11:34 51°11.641 2°45.59 27.452084 3.723506 27.405545  
2002-11-08 09:11:39 51°11.634 2°45.558 29.149688 3.723612 27.406405  
2002-11-08 09:11:44 51°11.626 2°45.527 29.149688 3.723612 27.406405  
2002-11-08 09:11:48 51°11.621 2°45.502 27.515719 3.723401 27.405162  
2002-11-08 09:11:52 51°11.615 2°45.477 27.397272 3.723506 27.406502  
2002-11-08 09:11:59 51°11.604 2°45.433 28.437773 3.72319 27.404877  
2002-11-08 09:12:03 51°11.599 2°45.408 27.337777 3.723401 27.40612  
2002-11-08 09:12:08 51°11.591 2°45.377 28.024913 3.723085 27.404494  
2002-11-08 09:12:14 51°11.583 2°45.338 28.024913 3.723085 27.404494  
2002-11-08 09:12:19 51°11.576 2°45.307 27.453252 3.723085 27.405452  
2002-11-08 09:12:24 51°11.569 2°45.276 26.942285 3.722874 27.40373  
2002-11-08 09:12:28 51°11.563 2°45.251 27.7595 3.722874 27.404209  
2002-11-08 09:12:34 51°11.555 2°45.213 27.062156 3.722769 27.403826  
2002-11-08 09:12:39 51°11.548 2°45.181 28.696414 3.722874 27.405166  
2002-11-08 09:12:43 51°11.542 2°45.156 28.696414 3.722874 27.405166  
2002-11-08 09:12:48 51°11.535 2°45.125 28.095154 3.722558 27.402583  
2002-11-08 09:12:53 51°11.527 2°45.093 27.993572 3.722453 27.40268  
2002-11-08 09:12:59 51°11.519 2°45.056 27.991181 3.722558 27.404498  
2002-11-08 09:13:03 51°11.513 2°45.03 28.086106 3.722453 27.403637  
2002-11-08 09:13:08 51°11.506 2°44.999 27.695964 3.722347 27.403734  
2002-11-08 09:13:13 51°11.499 2°44.968 27.695964 3.722347 27.403734  
2002-11-08 09:13:19 51°11.49 2°44.93 27.523596 3.722242 27.40383  
2002-11-08 09:13:23 51°11.484 2°44.905 28.243602 3.722137 27.402969  
2002-11-08 09:13:28 51°11.477 2°44.873 28.422173 3.722242 27.404309  
2002-11-08 09:13:33 51°11.47 2°44.842 28.263753 3.722031 27.404023  
2002-11-08 09:13:39 51°11.461 2°44.804 27.789049 3.721926 27.403162  
2002-11-08 09:13:43 51°11.455 2°44.779 27.789049 3.721926 27.403162  
2002-11-08 09:13:48 51°11.448 2°44.748 28.389377 3.72182 27.403259  
2002-11-08 09:13:53 51°11.44 2°44.716 28.071048 3.72182 27.403738  
2002-11-08 09:13:59 51°11.432 2°44.678 28.589858 3.721715 27.403355  
2002-11-08 09:14:04 51°11.424 2°44.646 25.652044 3.72161 27.403452  
2002-11-08 09:14:08 51°11.419 2°44.621 28.119433 3.72161 27.403931  
2002-11-08 09:14:12 51°11.413 2°44.596 28.119433 3.72161 27.403931  
2002-11-08 09:14:19 51°11.402 2°44.552 28.470728 3.721294 27.402305  
2002-11-08 09:14:24 51°11.395 2°44.52 28.446418 3.721294 27.402784  
2002-11-08 09:14:28 51°11.389 2°44.495 27.973167 3.721188 27.402881  
2002-11-08 09:14:33 51°11.382 2°44.463 28.008755 3.721083 27.402498  
2002-11-08 09:14:39 51°11.374 2°44.425 28.443789 3.721188 27.404797  
2002-11-08 09:14:43 51°11.367 2°44.4 28.443789 3.721188 27.404797  
2002-11-08 09:14:48 51°11.361 2°44.368 28.011943 3.721083 27.403935  
2002-11-08 09:14:52 51°11.354 2°44.343 27.291881 3.720661 27.401927  
2002-11-08 09:14:59 51°11.344 2°44.298 28.304869 3.720872 27.404608  
2002-11-08 09:15:04 51°11.338 2°44.266 27.24731 3.720767 27.403746  
2002-11-08 09:15:08 51°11.332 2°44.241 28.336656 3.720661 27.403843  
2002-11-08 09:15:14 51°11.324 2°44.203 28.336656 3.720661 27.403843  
2002-11-08 09:15:19 51°11.318 2°44.171 28.038749 3.720661 27.404322  
2002-11-08 09:15:23 51°11.313 2°44.145 26.294036 3.720345 27.403175  
2002-11-08 09:15:28 51°11.307 2°44.113 28.61829 3.720345 27.403654  
2002-11-08 09:15:33 51°11.301 2°44.08 27.625346 3.720345 27.403654  
2002-11-08 09:15:39 51°11.295 2°44.041 26.337924 3.72024 27.402793  
2002-11-08 09:15:44 51°11.289 2°44.009 26.337924 3.72024 27.402793  
2002-11-08 09:15:49 51°11.284 2°43.977 27.352144 3.719924 27.401645  
2002-11-08 09:15:54 51°11.279 2°43.944 27.56771 3.719924 27.402125  
2002-11-08 09:15:59 51°11.273 2°43.912 25.966869 3.719818 27.401263  
2002-11-08 09:16:04 51°11.268 2°43.879 28.426785 3.719713 27.40136  
2002-11-08 09:16:08 51°11.264 2°43.853 27.725575 3.719502 27.400595  
2002-11-08 09:16:12 51°11.259 2°43.827 27.725575 3.719502 27.400595  
2002-11-08 09:16:19 51°11.252 2°43.781 28.282563 3.719502 27.401074  
2002-11-08 09:16:23 51°11.248 2°43.755 28.014226 3.719502 27.402032  
2002-11-08 09:16:28 51°11.242 2°43.722 28.25227 3.719397 27.40165  
2002-11-08 09:16:32 51°11.238 2°43.696 28.340552 3.719397 27.402129  
2002-11-08 09:16:39 51°11.231 2°43.65 26.156939 3.719186 27.401364  
2002-11-08 09:16:43 51°11.226 2°43.624 26.156939 3.719186 27.401364  
2002-11-08 09:16:48 51°11.221 2°43.592 27.936982 3.719186 27.402323  
2002-11-08 09:16:54 51°11.215 2°43.553 26.521459 3.718975 27.400599  
2002-11-08 09:16:59 51°11.21 2°43.52 27.038814 3.718975 27.401558  
2002-11-08 09:17:03 51°11.206 2°43.494 26.760898 3.718765 27.400314  
2002-11-08 09:17:08 51°11.202 2°43.461 27.013224 3.71887 27.401655  
2002-11-08 09:17:13 51°11.197 2°43.428 27.013224 3.71887 27.401655  
2002-11-08 09:17:19 51°11.191 2°43.389 28.128333 3.718659 27.400411  
2002-11-08 09:17:24 51°11.187 2°43.356 26.978296 3.718554 27.400028  
2002-11-08 09:17:28 51°11.182 2°43.33 26.586821 3.718554 27.400987  
2002-11-08 09:17:34 51°11.177 2°43.291 26.584162 3.718554 27.401466  
2002-11-08 09:17:39 51°11.172 2°43.258 26.312758 3.718238 27.399839  
2002-11-08 09:17:44 51°11.168 2°43.225 26.312758 3.718238 27.399839  
2002-11-08 09:17:48 51°11.164 2°43.199 26.097665 3.718238 27.399839  
2002-11-08 09:17:52 51°11.16 2°43.173 26.435911 3.718027 27.398595  
2002-11-08 09:17:59 51°11.152 2°43.128 25.276147 3.718027 27.399553  
2002-11-08 09:18:03 51°11.147 2°43.103 26.322507 3.717711 27.397926  
2002-11-08 09:18:08 51°11.142 2°43.071 26.014265 3.717816 27.399268  
2002-11-08 09:18:14 51°11.137 2°43.035 26.014265 3.717816 27.399268  
2002-11-08 09:18:19 51°11.133 2°43.006 25.997068 3.718027 27.401951  
2002-11-08 09:18:23 51°11.13 2°42.985 24.988271 3.717711 27.400803  
2002-11-08 09:18:28 51°11.127 2°42.96 26.414702 3.717606 27.399941  
2002-11-08 09:18:32 51°11.125 2°42.941 26.049541 3.7175 27.399079  
2002-11-08 09:18:38 51°11.123 2°42.914 25.065343 3.717289 27.397834  
2002-11-08 09:18:44 51°11.121 2°42.888 25.065343 3.717289 27.397834  
2002-11-08 09:18:48 51°11.119 2°42.873 25.771975 3.717289 27.397355  
2002-11-08 09:18:53 51°11.118 2°42.854 26.312202 3.717289 27.398314  
2002-11-08 09:18:59 51°11.116 2°42.833 25.869785 3.717289 27.397834  
2002-11-08 09:19:03 51°11.115 2°42.82 25.746167 3.716973 27.396207  
2002-11-08 09:19:08 51°11.113 2°42.804 26.811763 3.717079 27.398028  
2002-11-08 09:19:12 51°11.112 2°42.792 26.811763 3.717079 27.398028  
2002-11-08 09:19:19 51°11.11 2°42.772 25.314973 3.716973 27.398605  
2002-11-08 09:19:23 51°11.108 2°42.761 25.927008 3.716763 27.39736  
2002-11-08 09:19:28 51°11.106 2°42.748 24.698953 3.716868 27.399181  
2002-11-08 09:19:34 51°11.103 2°42.734 26.385008 3.716341 27.396309  
2002-11-08 09:19:39 51°11.101 2°42.723 26.362229 3.716657 27.399855  
2002-11-08 09:19:43 51°11.1 2°42.716 26.362229 3.716657 27.399855  
2002-11-08 09:19:48 51°11.099 2°42.708 24.487498 3.716552 27.399952  
2002-11-08 09:19:52 51°11.098 2°42.702 25.47896 3.716446 27.39861  
2002-11-08 09:19:59 51°11.097 2°42.694 26.243703 3.716341 27.398227  
2002-11-08 09:20:04 51°11.097 2°42.689 25.543119 3.716341 27.399187  
2002-11-08 09:20:08 51°11.097 2°42.686 26.619535 3.716341 27.399187  
2002-11-08 09:20:14 51°11.096 2°42.683 26.619535 3.716341 27.399187  
2002-11-08 09:20:19 51°11.095 2°42.681 25.507673 3.716025 27.3966  
2002-11-08 09:20:23 51°11.095 2°42.68 25.849681 3.716025 27.397559  
2002-11-08 09:20:28 51°11.094 2°42.678 26.212603 3.715814 27.397273  
2002-11-08 09:20:33 51°11.094 2°42.677 26.725186 3.71592 27.398615  
2002-11-08 09:20:39 51°11.093 2°42.675 25.355056 3.715709 27.39785  
2002-11-08 09:20:44 51°11.093 2°42.674 25.355056 3.715709 27.39785  
2002-11-08 09:20:50 51°11.092 2°42.671 24.894189 3.715814 27.398712  
2002-11-08 09:20:55 51°11.091 2°42.67 25.023101 3.715604 27.397947  
2002-11-08 09:21:00 51°11.091 2°42.668 25.604227 3.715603 27.397467  
2002-11-08 09:21:04 51°11.091 2°42.667 25.91579 3.715393 27.396222  
2002-11-08 09:21:10 51°11.09 2°42.665 24.526215 3.715393 27.397661  
2002-11-08 09:21:15 51°11.089 2°42.663 24.526215 3.715393 27.397661  
2002-11-08 09:21:20 51°11.089 2°42.661 25.08457 3.715287 27.397279  
2002-11-08 09:21:24 51°11.089 2°42.66 25.241099 3.715077 27.396034  
2002-11-08 09:21:30 51°11.088 2°42.658 24.623883 3.714971 27.396131  
2002-11-08 09:21:34 51°11.088 2°42.657 25.340333 3.714971 27.39709  
2002-11-08 09:21:39 51°11.088 2°42.655 24.875668 3.714866 27.397187  
2002-11-08 09:21:44 51°11.087 2°42.653 24.875668 3.714866 27.397187  
2002-11-08 09:21:48 51°11.087 2°42.652 24.845269 3.714655 27.396902  
2002-11-08 09:21:53 51°11.086 2°42.651 24.219337 3.714866 27.399587  
2002-11-08 09:21:59 51°11.086 2°42.648 24.601196 3.71455 27.397479  
2002-11-08 09:22:04 51°11.085 2°42.647 24.349182 3.714655 27.398821  
2002-11-08 09:22:09 51°11.085 2°42.645 24.749563 3.714655 27.399781  
2002-11-08 09:22:12 51°11.085 2°42.644 24.749563 3.714655 27.399781  
2002-11-08 09:22:19 51°11.085 2°42.642 24.631432 3.714444 27.397576  
2002-11-08 09:22:23 51°11.084 2°42.641 25.309938 3.714339 27.397193  
2002-11-08 09:22:28 51°11.084 2°42.639 25.275959 3.714444 27.399016  
2002-11-08 09:22:35 51°11.083 2°42.636 25.86792 3.714234 27.39729  
2002-11-08 09:22:39 51°11.083 2°42.635 25.069943 3.714023 27.396525  
2002-11-08 09:22:44 51°11.083 2°42.633 25.069943 3.714023 27.396525  
2002-11-08 09:22:48 51°11.083 2°42.632 24.196408 3.714023 27.397005  
2002-11-08 09:22:54 51°11.083 2°42.63 24.759143 3.714128 27.398828  
2002-11-08 09:22:59 51°11.083 2°42.629 24.850033 3.713918 27.398062  
2002-11-08 09:23:03 51°11.083 2°42.627 24.63477 3.713918 27.399502  
2002-11-08 09:23:08 51°11.083 2°42.625 24.671133 3.713812 27.3996  
2002-11-08 09:23:12 51°11.083 2°42.624 24.671133 3.713812 27.3996  
2002-11-08 09:23:19 51°11.083 2°42.621 23.603968 3.713707 27.399217  
2002-11-08 09:23:23 51°11.083 2°42.619 24.175113 3.713601 27.399314  
2002-11-08 09:23:28 51°11.084 2°42.616 24.982647 3.713496 27.398932  
2002-11-08 09:23:34 51°11.084 2°42.613 24.053751 3.713496 27.399412  
2002-11-08 09:23:38 51°11.084 2°42.611 25.015669 3.71318 27.397783  
2002-11-08 09:23:44 51°11.085 2°42.608 25.015669 3.71318 27.397783  
2002-11-08 09:23:48 51°11.086 2°42.605 24.176678 3.71318 27.398263  
2002-11-08 09:23:53 51°11.086 2°42.602 25.44626 3.712969 27.397498  
2002-11-08 09:23:59 51°11.088 2°42.598 25.107635 3.712969 27.398458  
2002-11-08 09:24:03 51°11.088 2°42.596 24.334863 3.713075 27.399801  
2002-11-08 09:24:08 51°11.089 2°42.592 24.303894 3.712864 27.399036  
2002-11-08 09:24:12 51°11.09 2°42.589 24.303894 3.712864 27.399036  
2002-11-08 09:24:19 51°11.092 2°42.584 24.302408 3.712759 27.398653  
2002-11-08 09:24:24 51°11.094 2°42.58 24.74286 3.712653 27.399231  
2002-11-08 09:24:28 51°11.095 2°42.576 23.612854 3.712548 27.398848  
2002-11-08 09:24:34 51°11.096 2°42.571 24.150796 3.712442 27.398465  
2002-11-08 09:24:39 51°11.098 2°42.567 23.683635 3.712442 27.398945  
2002-11-08 09:24:44 51°11.1 2°42.562 23.683635 3.712442 27.398945  
2002-11-08 09:24:48 51°11.101 2°42.558 23.870693 3.712337 27.399523  
2002-11-08 09:24:52 51°11.103 2°42.554 24.845571 3.712442 27.400867  
2002-11-08 09:24:59 51°11.105 2°42.547 23.909624 3.712021 27.398375  
2002-11-08 09:25:04 51°11.107 2°42.542 25.337441 3.712021 27.398375  
2002-11-08 09:25:09 51°11.11 2°42.537 24.036468 3.711916 27.398472  
2002-11-08 09:25:12 51°11.111 2°42.534 24.036468 3.711916 27.398472  
2002-11-08 09:25:19 51°11.114 2°42.527 24.53609 3.711705 27.398187  
2002-11-08 09:25:24 51°11.116 2°42.522 24.284765 3.711916 27.400394  
2002-11-08 09:25:28 51°11.118 2°42.518 25.00382 3.711599 27.398765  
2002-11-08 09:25:32 51°11.12 2°42.514 16.38413 3.711494 27.398862  
2002-11-08 09:25:39 51°11.123 2°42.507 12.855792 3.47211 25.741033  
2002-11-08 09:25:43 51°11.125 2°42.503 12.855792 3.47211 25.741033  
2002-11-08 09:25:48 51°11.127 2°42.498 12.683771 3.292734 24.148261  
2002-11-08 09:25:54 51°11.13 2°42.493 12.665396 3.371289 24.067946  
2002-11-08 09:25:59 51°11.133 2°42.489 12.200866 3.326957 24.198069  
2002-11-08 09:26:04 51°11.135 2°42.485 12.134881 2.918916 21.774946  
2002-11-08 09:26:08 51°11.137 2°42.481 12.21928 3.442963 27.422553  
2002-11-08 09:26:12 51°11.139 2°42.478 12.21928 3.442963 27.422553  
2002-11-08 09:26:19 51°11.142 2°42.473 12.362873 3.523035 28.630706  
2002-11-08 09:26:23 51°11.144 2°42.47 12.414753 3.77226 31.663262  
2002-11-08 09:26:28 51°11.147 2°42.466 12.329834 3.826125 32.504397  
2002-11-08 09:26:34 51°11.149 2°42.462 12.215924 3.841728 32.841177  
2002-11-08 09:26:38 51°11.151 2°42.459 12.199823 3.867344 33.178298  
2002-11-08 09:26:44 51°11.154 2°42.455 12.199823 3.867344 33.178298  
2002-11-08 09:26:48 51°11.155 2°42.452 12.230978 3.8801 33.355897  
2002-11-08 09:26:54 51°11.157 2°42.448 12.263886 3.758464 32.23646  
2002-11-08 09:26:59 51°11.159 2°42.444 12.214246 3.895597 33.571038  
2002-11-08 09:27:03 51°11.161 2°42.442 12.178364 3.891697 33.55183  
2002-11-08 09:27:08 51°11.162 2°42.438 12.256544 3.891908 33.570028  
2002-11-08 09:27:12 51°11.164 2°42.436 12.256544 3.891908 33.570028  
2002-11-08 09:27:19 51°11.166 2°42.431 12.199324 3.891908 33.581289  
2002-11-08 09:27:24 51°11.168 2°42.428 12.313217 3.895281 33.627135  
2002-11-08 09:27:28 51°11.169 2°42.425 12.207216 3.898339 33.666445  
2002-11-08 09:27:34 51°11.171 2°42.422 12.215697 3.901501 33.707507  
2002-11-08 09:27:39 51°11.172 2°42.418 12.325985 3.902977 33.73022  
2002-11-08 09:27:44 51°11.174 2°42.415 12.325985 3.902977 33.73022  
2002-11-08 09:27:48 51°11.175 2°42.413 12.369977 3.907932 33.781515  
2002-11-08 09:27:52 51°11.176 2°42.41 12.292384 3.906562 33.776107  
2002-11-08 09:27:59 51°11.178 2°42.405 12.252465 3.911727 33.828044  
2002-11-08 09:28:03 51°11.178 2°42.403 12.422936 3.90867 33.795724  
2002-11-08 09:28:08 51°11.18 2°42.4 12.250154 3.909619 33.803452  
2002-11-08 09:28:14 51°11.181 2°42.396 12.250154 3.909619 33.803452  
2002-11-08 09:28:19 51°11.182 2°42.393 12.203452 3.904559 33.751836  
2002-11-08 09:28:24 51°11.183 2°42.39 12.130704 3.904242 33.746662  
2002-11-08 09:28:28 51°11.184 2°42.388 12.171785 3.88221 33.537239  
2002-11-08 09:28:34 51°11.185 2°42.384 12.432384 3.90361 33.741983  
2002-11-08 09:28:39 51°11.186 2°42.381 12.250426 3.909935 33.807211  
2002-11-08 09:28:44 51°11.187 2°42.378 12.250426 3.909935 33.807211  
2002-11-08 09:28:48 51°11.187 2°42.376 12.293471 3.908354 33.798355  
2002-11-08 09:28:54 51°11.188 2°42.373 12.247933 3.900447 33.72567  
2002-11-08 09:28:58 51°11.189 2°42.371 12.206264 3.908143 33.798452  
2002-11-08 09:29:04 51°11.19 2°42.368 12.239365 3.900869 33.729735  
2002-11-08 09:29:08 51°11.191 2°42.366 12.315753 3.910462 33.82295  
2002-11-08 09:29:12 51°11.191 2°42.363 12.315753 3.910462 33.82295  
2002-11-08 09:29:19 51°11.192 2°42.36 12.137288 3.909303 33.808924  
2002-11-08 09:29:23 51°11.193 2°42.358 12.396213 3.907932 33.796419  
2002-11-08 09:29:28 51°11.193 2°42.356 12.211797 3.910884 33.829149  
2002-11-08 09:29:32 51°11.194 2°42.354 12.363371 3.908565 33.809622  
2002-11-08 09:29:39 51°11.194 2°42.35 12.322997 3.912781 33.851722  
2002-11-08 09:29:43 51°11.195 2°42.348 12.322997 3.912781 33.851722  
2002-11-08 09:29:48 51°11.196 2°42.345 12.284683 3.908249 33.809413  
2002-11-08 09:29:54 51°11.196 2°42.343 12.097049 3.917525 33.896782  
2002-11-08 09:29:59 51°11.197 2°42.34 12.207489 3.904032 33.766612  
2002-11-08 09:30:03 51°11.197 2°42.339 12.29252 3.906878 33.793353  
2002-11-08 09:30:08 51°11.198 2°42.336 12.322228 3.910251 33.827313  
2002-11-08 09:30:13 51°11.198 2°42.333 12.322228 3.910251 33.827313  
2002-11-08 09:30:19 51°11.198 2°42.33 12.320416 3.910673 33.833514  
2002-11-08 09:30:24 51°11.199 2°42.328 12.244125 3.896969 33.702756  
2002-11-08 09:30:29 51°11.199 2°42.326 12.175052 3.916682 33.895055  
2002-11-08 09:30:34 51°11.199 2°42.323 12.211842 3.914995 33.880201  
2002-11-08 09:30:39 51°11.2 2°42.321 12.17478 3.916366 33.892003  
2002-11-08 09:30:44 51°11.2 2°42.318 12.17478 3.916366 33.892003  
2002-11-08 09:30:48 51°11.2 2°42.316 12.064058 3.914047 33.872469  
2002-11-08 09:30:54 51°11.201 2°42.314 12.212387 3.916366 33.896991  
2002-11-08 09:30:59 51°11.201 2°42.311 12.103545 3.90983 33.834623  
2002-11-08 09:31:04 51°11.201 2°42.309 12.287129 3.911306 33.849577  
2002-11-08 09:31:09 51°11.201 2°42.306 12.331056 3.912676 33.863515  
2002-11-08 09:31:12 51°11.202 2°42.305 12.331056 3.912676 33.863515  
2002-11-08 09:31:19 51°11.202 2°42.302 11.699935 3.917736 33.911645  
2002-11-08 09:31:24 51°11.202 2°42.299 12.338027 3.915101 33.88763  
2002-11-08 09:31:28 51°11.202 2°42.297 12.340426 3.917104 33.905539  
2002-11-08 09:31:34 51°11.202 2°42.294 12.26742 3.900237 33.744908  
2002-11-08 09:31:39 51°11.202 2°42.292 12.34545 3.91489 33.88702  
2002-11-08 09:31:43 51°11.203 2°42.29 12.34545 3.91489 33.88702  
2002-11-08 09:31:48 51°11.203 2°42.288 12.196376 3.915206 33.887223  
2002-11-08 09:31:54 51°11.203 2°42.285 12.319103 3.913098 33.865449  
2002-11-08 09:31:59 51°11.203 2°42.282 12.357353 3.911727 33.851511  
2002-11-08 09:32:03 51°11.204 2°42.281 12.51311 3.912887 33.861278  
2002-11-08 09:32:09 51°11.204 2°42.278 12.237915 3.914468 33.875827  
2002-11-08 09:32:12 51°11.204 2°42.276 12.237915 3.914468 33.875827  
2002-11-08 09:32:19 51°11.204 2°42.273 12.388117 3.911517 33.844496  
2002-11-08 09:32:23 51°11.204 2°42.271 12.203089 3.915628 33.880608  
2002-11-08 09:32:28 51°11.205 2°42.269 12.420857 3.908038 33.803827  
2002-11-08 09:32:34 51°11.205 2°42.266 12.162572 3.907089 33.794676  
2002-11-08 09:32:39 51°11.205 2°42.264 12.345496 3.913519 33.858129  
2002-11-08 09:32:43 51°11.205 2°42.262 12.345496 3.913519 33.858129  
2002-11-08 09:32:48 51°11.205 2°42.26 12.122576 3.917842 33.901971  
2002-11-08 09:32:52 51°11.205 2°42.258 12.227215 3.911622 33.841957  
2002-11-08 09:32:59 51°11.206 2°42.255 12.378528 3.913519 33.861688  
2002-11-08 09:33:03 51°11.206 2°42.253 12.413849 3.911411 33.84419  
2002-11-08 09:33:08 51°11.206 2°42.251 12.302937 3.913941 33.868604  
2002-11-08 09:33:13 51°11.206 2°42.248 12.302937 3.913941 33.868604  
2002-11-08 09:33:19 51°11.207 2°42.246 12.451682 3.915101 33.879794  
2002-11-08 09:33:24 51°11.207 2°42.244 12.226671 3.915944 33.893633  
2002-11-08 09:33:28 51°11.207 2°42.242 12.336533 3.904348 33.781021  
2002-11-08 09:33:33 51°11.208 2°42.239 12.222817 3.919634 33.929964  
2002-11-08 09:33:39 51°11.208 2°42.237 12.337891 3.914047 33.876742  
2002-11-08 09:33:43 51°11.208 2°42.235 12.337891 3.914047 33.876742  
2002-11-08 09:33:49 51°11.208 2°42.233 12.227215 3.916788 33.901774  
2002-11-08 09:33:54 51°11.208 2°42.231 12.305926 3.920056 33.934748  
2002-11-08 09:33:58 51°11.208 2°42.229 12.225084 3.918158 33.917855  
2002-11-08 09:34:04 51°11.209 2°42.226 12.332821 3.917947 33.916533  
2002-11-08 09:34:08 51°11.209 2°42.225 12.332278 3.912149 33.861988  
2002-11-08 09:34:12 51°11.209 2°42.223 12.332278 3.912149 33.861988  
2002-11-08 09:34:19 51°11.209 2°42.22 12.365045 3.918685 33.925797  
2002-11-08 09:34:23 51°11.209 2°42.219 12.512162 3.913625 33.876946  
2002-11-08 09:34:28 51°11.209 2°42.216 12.216922 3.913731 33.879389  
2002-11-08 09:34:34 51°11.21 2°42.214 12.254369 3.913414 33.879186  
2002-11-08 09:34:39 51°11.21 2°42.212 12.326212 3.916577 33.912573  
2002-11-08 09:34:43 51°11.21 2°42.21 12.326212 3.916577 33.912573  
2002-11-08 09:34:48 51°11.21 2°42.209 12.215471 3.904665 33.798283  
2002-11-08 09:34:52 51°11.21 2°42.207 12.139013 3.914258 33.894457  
2002-11-08 09:34:59 51°11.21 2°42.204 12.210981 3.91858 33.934771  
2002-11-08 09:35:03 51°11.211 2°42.203 12.246165 3.914469 33.896493  
2002-11-08 09:35:08 51°11.211 2°42.201 12.172465 3.918053 33.933249  
2002-11-08 09:35:13 51°11.211 2°42.199 12.172465 3.918053 33.933249  
2002-11-08 09:35:19 51°11.211 2°42.197 12.208804 3.916788 33.922458  
2002-11-08 09:35:24 51°11.211 2°42.195 12.168744 3.903716 33.796946  
2002-11-08 09:35:28 51°11.211 2°42.193 12.318379 3.920267 33.959634  
2002-11-08 09:35:33 51°11.211 2°42.192 12.208396 3.912993 33.890797  
2002-11-08 09:35:39 51°11.211 2°42.189 12.131567 3.918896 33.950681  
2002-11-08 09:35:43 51°11.211 2°42.188 12.131567 3.918896 33.950681  
2002-11-08 09:35:48 51°11.212 2°42.186 12.094959 3.919845 33.959848  
2002-11-08 09:35:54 51°11.213 2°42.183 12.244442 3.920161 33.965048  
2002-11-08 09:35:59 51°11.213 2°42.182 12.206944 3.917315 33.940403  
2002-11-08 09:36:04 51°11.213 2°42.18 12.242992 3.91858 33.951913  
2002-11-08 09:36:09 51°11.213 2°42.178 12.280424 3.912888 33.896911  
2002-11-08 09:36:12 51°11.214 2°42.177 12.280424 3.912888 33.896911  
2002-11-08 09:36:19 51°11.214 2°42.175 12.098502 3.91974 33.966693  
2002-11-08 09:36:24 51°11.214 2°42.173 12.281194 3.915945 33.932161  
2002-11-08 09:36:28 51°11.214 2°42.172 12.169743 3.917632 33.949176  
2002-11-08 09:36:34 51°11.214 2°42.17 12.206355 3.920372 33.976382  
2002-11-08 09:36:39 51°11.214 2°42.168 12.203543 3.920162 33.974344  
2002-11-08 09:36:44 51°11.214 2°42.167 12.203543 3.920162 33.974344  
2002-11-08 09:36:48 51°11.214 2°42.165 12.170106 3.920478 33.978117  
2002-11-08 09:36:53 51°11.214 2°42.164 12.095822 3.920056 33.975471  
2002-11-08 09:36:59 51°11.214 2°42.162 12.092324 3.918264 33.958864  
2002-11-08 09:37:04 51°11.214 2°42.161 12.244578 3.919424 33.970073  
2002-11-08 09:37:09 51°11.214 2°42.159 12.169833 3.91974 33.973845  
2002-11-08 09:37:14 51°11.214 2°42.158 12.169833 3.91974 33.973845  
2002-11-08 09:37:19 51°11.214 2°42.157 12.091824 3.920373 33.981391  
2002-11-08 09:37:24 51°11.214 2°42.155 12.054512 3.919318 33.969054  
2002-11-08 09:37:29 51°11.214 2°42.153 12.204767 3.918686 33.966516  
2002-11-08 09:37:33 51°11.214 2°42.152 12.205039 3.919635 33.974972  
2002-11-08 09:37:39 51°11.214 2°42.151 12.095368 3.920056 33.979764  
2002-11-08 09:37:44 51°11.214 2°42.15 12.095368 3.920056 33.979764  
2002-11-08 09:37:48 51°11.214 2°42.148 12.014041 3.919318 33.973346  
2002-11-08 09:37:54 51°11.214 2°42.147 12.04692 3.916577 33.94971  
2002-11-08 09:37:59 51°11.213 2°42.145 12.006126 3.920583 33.987007  
2002-11-08 09:38:03 51°11.213 2°42.144 12.009083 3.917526 33.958166  
2002-11-08 09:38:08 51°11.213 2°42.143 12.013086 3.919424 33.973649  
2002-11-08 09:38:12 51°11.213 2°42.142 12.013086 3.919424 33.973649  
2002-11-08 09:38:19 51°11.213 2°42.14 12.01959 3.919951 33.976599  
2002-11-08 09:38:23 51°11.213 2°42.139 12.025275 3.920056 33.98048  
2002-11-08 09:38:28 51°11.213 2°42.138 12.029368 3.921005 33.993948  
2002-11-08 09:38:34 51°11.213 2°42.137 12.031688 3.917843 33.964085  
2002-11-08 09:38:38 51°11.213 2°42.136 12.03387 3.921954 34.002406  
2002-11-08 09:38:44 51°11.213 2°42.135 12.03387 3.921954 34.002406  
2002-11-08 09:38:48 51°11.213 2°42.134 12.035507 3.921743 33.998935  
2002-11-08 09:38:54 51°11.213 2°42.133 12.035235 3.921848 33.996375  
2002-11-08 09:38:59 51°11.213 2°42.132 12.034825 3.92111 33.985662  
2002-11-08 09:39:03 51°11.213 2°42.131 12.036144 3.922165 33.992274  
2002-11-08 09:39:08 51°11.213 2°42.13 12.038236 3.920162 33.969338  
2002-11-08 09:39:12 51°11.213 2°42.129 12.038236 3.920162 33.969338  
2002-11-08 09:39:19 51°11.213 2°42.128 12.039145 3.919107 33.958436  
2002-11-08 09:39:24 51°11.213 2°42.127 12.040646 3.92227 33.986853  
2002-11-08 09:39:28 51°11.213 2°42.126 12.043783 3.920056 33.966174  
2002-11-08 09:39:32 51°11.213 2°42.125 12.046965 3.91974 33.962403  
2002-11-08 09:39:39 51°11.213 2°42.123 12.046011 3.922164 33.985119  
2002-11-08 09:39:44 51°11.213 2°42.123 12.046011 3.922164 33.985119  
2002-11-08 09:39:48 51°11.213 2°42.122 12.043328 3.922481 33.986745  
2002-11-08 09:39:54 51°11.213 2°42.121 12.038827 3.922692 33.987352  
2002-11-08 09:39:59 51°11.213 2°42.12 12.035689 3.922797 33.98694  
2002-11-08 09:40:04 51°11.213 2°42.12 12.034871 3.923113 33.988565  
2002-11-08 09:40:08 51°11.213 2°42.119 12.036735 3.924062 33.996303  
2002-11-08 09:40:12 51°11.213 2°42.118 12.036735 3.924062 33.996303  
2002-11-08 09:40:19 51°11.213 2°42.117 12.037326 3.92364 33.992943  
2002-11-08 09:40:24 51°11.213 2°42.116 12.036735 3.923851 33.995696  
2002-11-08 09:40:28 51°11.213 2°42.116 12.036508 3.92364 33.997236  
2002-11-08 09:40:32 51°11.213 2°42.115 12.038827 3.92364 33.998667  
2002-11-08 09:40:39 51°11.212 2°42.113 12.040327 3.919951 33.964441  
2002-11-08 09:40:44 51°11.212 2°42.112 12.040327 3.919951 33.964441  
2002-11-08 09:40:48 51°11.212 2°42.111 12.0401 3.922902 33.993682  
2002-11-08 09:40:52 51°11.212 2°42.11 12.038463 3.923219 33.995307  
2002-11-08 09:40:59 51°11.211 2°42.109 12.038099 3.92364 34.000098  
2002-11-08 09:41:03 51°11.211 2°42.108 12.036462 3.92343 33.997345  
2002-11-08 09:41:08 51°11.211 2°42.107 12.036371 3.923746 33.999686  
2002-11-08 09:41:12 51°11.211 2°42.106 12.036371 3.923746 33.999686  
2002-11-08 09:41:19 51°11.211 2°42.105 12.036508 3.92364 33.997952  
2002-11-08 09:41:24 51°11.211 2°42.104 12.036735 3.923851 34.000705  
2002-11-08 09:41:28 51°11.211 2°42.103 12.037235 3.924062 34.001311  
2002-11-08 09:41:34 51°11.211 2°42.102 12.035553 3.923957 34.002439  
2002-11-08 09:41:39 51°11.211 2°42.1 12.034189 3.924273 34.005496  
2002-11-08 09:41:44 51°11.211 2°42.099 12.034189 3.924273 34.005496  
2002-11-08 09:41:48 51°11.211 2°42.099 12.034734 3.924167 34.004477  
2002-11-08 09:41:53 51°11.211 2°42.098 12.037645 3.924062 34.003458  
2002-11-08 09:41:59 51°11.211 2°42.097 12.03869 3.9248 34.011306  
2002-11-08 09:42:03 51°11.211 2°42.096 12.040646 3.924273 34.006927  
2002-11-08 09:42:08 51°11.211 2°42.094 12.041828 3.923851 34.004283  
2002-11-08 09:42:12 51°11.211 2°42.093 12.041828 3.923851 34.004283  
2002-11-08 09:42:19 51°11.211 2°42.092 12.041146 3.924484 34.008965  
2002-11-08 09:42:24 51°11.211 2°42.091 12.038372 3.924484 34.008965  
2002-11-08 09:42:28 51°11.211 2°42.09 12.035735 3.924695 34.011003  
2002-11-08 09:42:34 51°11.211 2°42.089 12.032461 3.924905 34.010893  
2002-11-08 09:42:39 51°11.211 2°42.088 12.03237 3.924378 34.005083  
2002-11-08 09:42:44 51°11.211 2°42.086 12.03237 3.924378 34.005083  
2002-11-08 09:42:48 51°11.211 2°42.085 12.034962 3.924589 34.007121  
2002-11-08 09:42:53 51°11.211 2°42.084 12.037235 3.924484 34.006102  
2002-11-08 09:42:59 51°11.211 2°42.083 12.072103 3.924484 34.008249  
2002-11-08 09:43:03 51°11.211 2°42.082 12.03478 3.9248 34.012738  
2002-11-08 09:43:08 51°11.211 2°42.081 12.034234 3.924378 34.010094  
2002-11-08 09:43:12 51°11.211 2°42.08 12.034234 3.924378 34.010094  
2002-11-08 09:43:19 51°11.211 2°42.079 12.032097 3.9248 34.01417  
2002-11-08 09:43:24 51°11.211 2°42.078 12.032415 3.92364 34.00153  
2002-11-08 09:43:28 51°11.211 2°42.077 12.032824 3.923851 34.003568  
2002-11-08 09:43:34 51°11.211 2°42.075 12.032461 3.923746 34.002549  
2002-11-08 09:43:39 51°11.211 2°42.074 12.030869 3.923957 34.00745  
2002-11-08 09:43:44 51°11.212 2°42.073 12.030869 3.923957 34.00745  
2002-11-08 09:43:48 51°11.212 2°42.072 12.029959 3.923535 34.003374  
2002-11-08 09:43:53 51°11.212 2°42.07 12.031369 3.923219 33.999601  
2002-11-08 09:43:59 51°11.212 2°42.069 12.033688 3.923746 34.005412  
2002-11-08 09:44:03 51°11.212 2°42.068 12.03337 3.923851 34.005715  
2002-11-08 09:44:08 51°11.212 2°42.067 12.03196 3.923957 34.008166  
2002-11-08 09:44:14 51°11.212 2°42.065 12.03196 3.923957 34.008166  
2002-11-08 09:44:19 51°11.212 2°42.064 12.028777 3.922903 34.000123  
2002-11-08 09:44:24 51°11.212 2°42.062 12.027458 3.924273 34.011939  
2002-11-08 09:44:28 51°11.213 2°42.061 12.026958 3.92364 34.005825  
2002-11-08 09:44:32 51°11.213 2°42.06 12.026549 3.924589 34.01428  
2002-11-08 09:44:39 51°11.213 2°42.059 12.026412 3.924273 34.012655  
2002-11-08 09:44:44 51°11.213 2°42.057 12.026412 3.924273 34.012655  
2002-11-08 09:44:48 51°11.213 2°42.057 12.067967 3.924695 34.016732  
2002-11-08 09:44:54 51°11.213 2°42.055 12.03287 3.924484 34.016126  
2002-11-08 09:44:59 51°11.213 2°42.053 12.033097 3.924695 34.01888  
2002-11-08 09:45:03 51°11.214 2°42.052 12.032461 3.924273 34.016236  
2002-11-08 09:45:09 51°11.214 2°42.05 12.031551 3.924168 34.013784  
2002-11-08 09:45:14 51°11.214 2°42.049 12.031551 3.924168 34.013784  
2002-11-08 09:45:19 51°11.214 2°42.047 12.030323 3.923957 34.011746  
2002-11-08 09:45:24 51°11.214 2°42.046 12.032415 3.924378 34.015106  
2002-11-08 09:45:28 51°11.214 2°42.045 12.032824 3.924589 34.016429  
2002-11-08 09:45:34 51°11.214 2°42.043 12.032506 3.925116 34.019376  
2002-11-08 09:45:39 51°11.215 2°42.041 12.030733 3.924695 34.016732  
2002-11-08 09:45:43 51°11.215 2°42.04 12.030733 3.924695 34.016732  
2002-11-08 09:45:48 51°11.215 2°42.038 12.03196 3.925116 34.022241  
2002-11-08 09:45:53 51°11.215 2°42.037 12.034325 3.925116 34.020808  
2002-11-08 09:45:59 51°11.215 2°42.035 12.037554 3.924273 34.014803  
2002-11-08 09:46:03 51°11.215 2°42.033 12.038645 3.924484 34.015409  
2002-11-08 09:46:08 51°11.215 2°42.032 12.038963 3.925116 34.021524  
2002-11-08 09:46:14 51°11.216 2°42.03 12.038963 3.925116 34.021524  
2002-11-08 09:46:19 51°11.216 2°42.028 12.037735 3.925011 34.021221  
2002-11-08 09:46:24 51°11.216 2°42.027 12.037235 3.925011 34.021221  
2002-11-08 09:46:28 51°11.216 2°42.026 12.037781 3.924906 34.018054  
2002-11-08 09:46:34 51°11.216 2°42.024 12.035371 3.924273 34.010507  
2002-11-08 09:46:39 51°11.216 2°42.022 12.036826 3.926276 34.028437  
2002-11-08 09:46:44 51°11.216 2°42.02 12.036826 3.926276 34.028437  
2002-11-08 09:46:48 51°11.216 2°42.019 12.038827 3.925538 34.020587  
2002-11-08 09:46:54 51°11.216 2°42.017 12.040282 3.925643 34.022322  
2002-11-08 09:46:59 51°11.216 2°42.016 12.040964 3.925854 34.02436  
2002-11-08 09:47:04 51°11.216 2°42.014 12.041373 3.925433 34.020284  
2002-11-08 09:47:08 51°11.216 2°42.013 12.041055 3.925538 34.022019  
2002-11-08 09:47:12 51°11.216 2°42.012 12.041055 3.925538 34.022019  
2002-11-08 09:47:19 51°11.216 2°42.01 12.041737 3.926381 34.028739  
2002-11-08 09:47:24 51°11.216 2°42.008 12.042464 3.926381 34.028023  
2002-11-08 09:47:29 51°11.216 2°42.007 12.045601 3.925749 34.021193  
2002-11-08 09:47:34 51°11.216 2°42.005 12.085327 3.926381 34.025874  
2002-11-08 09:47:39 51°11.216 2°42.004 12.048784 3.926592 34.027912  
2002-11-08 09:47:44 51°11.216 2°42.002 12.048784 3.926592 34.027912  
2002-11-08 09:47:48 51°11.216 2°42.001 12.048284 3.926276 34.024139  
2002-11-08 09:47:54 51°11.216 2°41.999 12.047966 3.926698 34.027499  
2002-11-08 09:47:59 51°11.217 2°41.998 12.046556 3.92617 34.022404  
2002-11-08 09:48:04 51°11.217 2°41.996 12.04592 3.927541 34.032785  
2002-11-08 09:48:08 51°11.217 2°41.995 12.040691 3.927541 34.032069  
2002-11-08 09:48:14 51°11.217 2°41.993 12.040691 3.927541 34.032069  
2002-11-08 09:48:19 51°11.217 2°41.992 12.073557 3.92733 34.029315  
2002-11-08 09:48:23 51°11.217 2°41.991 12.037599 3.927435 34.030334  
2002-11-08 09:48:28 51°11.217 2°41.99 12.038963 3.928068 34.036447  
2002-11-08 09:48:32 51°11.217 2°41.989 12.03819 3.928068 34.03788  
2002-11-08 09:48:39 51°11.217 2°41.987 12.038918 3.927752 34.036256  
2002-11-08 09:48:44 51°11.217 2°41.985 12.038918 3.927752 34.036256  
2002-11-08 09:48:48 51°11.217 2°41.984 12.041328 3.927752 34.039121  
2002-11-08 09:48:52 51°11.217 2°41.983 12.043237 3.927646 34.040252  
2002-11-08 09:48:59 51°11.217 2°41.981 12.043646 3.927752 34.040554  
2002-11-08 09:49:04 51°11.217 2°41.98 12.042555 3.927541 34.039949  
2002-11-08 09:49:08 51°11.217 2°41.979 12.039327 3.927646 34.041685  
2002-11-08 09:49:14 51°11.217 2°41.977 12.039327 3.927646 34.041685  
2002-11-08 09:49:19 51°11.217 2°41.976 12.076602 3.927436 34.037497  
2002-11-08 09:49:24 51°11.217 2°41.975 12.040918 3.926698 34.029648  
2002-11-08 09:49:28 51°11.218 2°41.974 12.046102 3.92733 34.035045  
2002-11-08 09:49:34 51°11.218 2°41.972 12.050603 3.927119 34.033007  
2002-11-08 09:49:39 51°11.218 2°41.971 12.053603 3.927436 34.037497  
2002-11-08 09:49:43 51°11.218 2°41.97 12.053603 3.927436 34.037497  
2002-11-08 09:49:48 51°11.218 2°41.968 12.054739 3.926698 34.029648  
2002-11-08 09:49:54 51°11.218 2°41.966 12.05583 3.927541 34.0378  
2002-11-08 09:49:59 51°11.218 2°41.965 12.058922 3.928173 34.042481  
2002-11-08 09:50:04 51°11.218 2°41.964 12.061467 3.927752 34.036256  
2002-11-08 09:50:08 51°11.218 2°41.963 12.05924 3.928173 34.03675  
2002-11-08 09:50:14 51°11.218 2°41.961 12.05924 3.928173 34.03675  
2002-11-08 09:50:19 51°11.218 2°41.96 12.093687 3.929122 34.04377  
2002-11-08 09:50:23 51°11.218 2°41.959 12.052785 3.929333 34.043659  
2002-11-08 09:50:28 51°11.219 2°41.957 12.051466 3.929755 34.046301  
2002-11-08 09:50:32 51°11.218 2°41.956 12.051284 3.930071 34.048641  
2002-11-08 09:50:39 51°11.218 2°41.954 12.160848 3.930071 34.046492  
2002-11-08 09:50:43 51°11.219 2°41.953 12.160848 3.930071 34.046492  
2002-11-08 09:50:48 51°11.219 2°41.952 12.045329 3.930071 34.047925  
2002-11-08 09:50:54 51°11.219 2°41.95 12.041373 3.930071 34.049358  
2002-11-08 09:50:59 51°11.219 2°41.949 12.085463 3.929438 34.044678  
2002-11-08 09:51:04 51°11.219 2°41.947 12.048966 3.929438 34.047543  
2002-11-08 09:51:08 51°11.22 2°41.946 12.046238 3.929017 34.043468  
2002-11-08 09:51:14 51°11.219 2°41.944 12.046238 3.929017 34.043468  
2002-11-08 09:51:19 51°11.22 2°41.943 12.044192 3.929544 34.049995  
2002-11-08 09:51:24 51°11.22 2°41.941 12.04351 3.929333 34.050824  
2002-11-08 09:51:28 51°11.22 2°41.94 12.043601 3.929333 34.05154  
2002-11-08 09:51:34 51°11.22 2°41.939 12.081919 3.928911 34.046748  
2002-11-08 09:51:39 51°11.22 2°41.937 12.045647 3.929544 34.052145  
2002-11-08 09:51:43 51°11.221 2°41.936 12.045647 3.929544 34.052145  
2002-11-08 09:51:48 51°11.221 2°41.934 12.048148 3.929333 34.050824  
2002-11-08 09:51:54 51°11.221 2°41.933 12.047738 3.929544 34.054295  
2002-11-08 09:51:59 51°11.221 2°41.931 12.046147 3.929333 34.052974  
2002-11-08 09:52:04 51°11.221 2°41.93 12.044147 3.929649 34.056031  
2002-11-08 09:52:09 51°11.221 2°41.928 12.044328 3.92986 34.056636  
2002-11-08 09:52:14 51°11.221 2°41.927 12.044328 3.92986 34.056636  
2002-11-08 09:52:19 51°11.221 2°41.925 12.086235 3.929017 34.047767  
2002-11-08 09:52:24 51°11.221 2°41.924 12.053648 3.92986 34.054485  
2002-11-08 09:52:28 51°11.221 2°41.923 12.055558 3.929333 34.05154  
2002-11-08 09:52:34 51°11.222 2°41.921 12.056967 3.92986 34.055919  
2002-11-08 09:52:39 51°11.222 2°41.92 12.058422 3.928068 34.040029  
2002-11-08 09:52:44 51°11.222 2°41.919 12.058422 3.928068 34.040029  
2002-11-08 09:52:48 51°11.222 2°41.918 12.062058 3.930387 34.061731  
2002-11-08 09:52:52 51°11.222 2°41.916 12.061694 3.929966 34.055504  
2002-11-08 09:52:59 51°11.222 2°41.915 12.057331 3.930914 34.061808  
2002-11-08 09:53:03 51°11.222 2°41.913 12.051057 3.930703 34.056903  
2002-11-08 09:53:08 51°11.223 2°41.912 12.045056 3.931231 34.061281  
2002-11-08 09:53:14 51°11.223 2°41.91 12.045056 3.931231 34.061281  
2002-11-08 09:53:19 51°11.223 2°41.909 12.042646 3.93102 34.05781  
2002-11-08 09:53:24 51°11.223 2°41.907 12.044965 3.931125 34.055246  
2002-11-08 09:53:28 51°11.223 2°41.906 12.049557 3.931231 34.058414  
2002-11-08 09:53:32 51°11.223 2°41.905 12.05233 3.931125 34.059545  
2002-11-08 09:53:39 51°11.224 2°41.903 12.054649 3.930809 34.060072  
2002-11-08 09:53:44 51°11.224 2°41.901 12.054649 3.930809 34.060072  
2002-11-08 09:53:48 51°11.224 2°41.9 12.052694 3.930493 34.060599  
2002-11-08 09:53:54 51°11.224 2°41.899 12.051148 3.92986 34.055919  
2002-11-08 09:53:59 51°11.224 2°41.897 12.050193 3.92986 34.053769  
2002-11-08 09:54:04 51°11.224 2°41.896 12.049375 3.930809 34.062223  
2002-11-08 09:54:08 51°11.225 2°41.894 12.050239 3.930598 34.058751  
2002-11-08 09:54:14 51°11.225 2°41.893 12.050239 3.930598 34.058751  
2002-11-08 09:54:19 51°11.225 2°41.891 12.052285 3.930809 34.060072  
2002-11-08 09:54:23 51°11.225 2°41.89 12.054285 3.930282 34.054978  
2002-11-08 09:54:28 51°11.225 2°41.888 12.053512 3.931125 34.063846  
2002-11-08 09:54:32 51°11.226 2°41.887 12.056194 3.931125 34.06528  
2002-11-08 09:54:39 51°11.226 2°41.885 12.059012 3.930704 34.06192  
2002-11-08 09:54:43 51°11.226 2°41.884 12.059012 3.930704 34.06192  
2002-11-08 09:54:49 51°11.226 2°41.882 12.057694 3.930809 34.062223  
2002-11-08 09:54:54 51°11.226 2°41.88 12.05874 3.931441 34.066903  
2002-11-08 09:54:59 51°11.227 2°41.879 12.058694 3.931652 34.068224  
2002-11-08 09:55:03 51°11.227 2°41.878 12.170696 3.931652 34.06679  
2002-11-08 09:55:08 51°11.227 2°41.876 12.060467 3.932074 34.068715  
2002-11-08 09:55:12 51°11.227 2°41.875 12.060467 3.932074 34.068715  
2002-11-08 09:55:19 51°11.228 2°41.873 12.062785 3.931968 34.066979  
2002-11-08 09:55:24 51°11.228 2°41.872 12.063422 3.93239 34.071055  
2002-11-08 09:55:28 51°11.228 2°41.871 12.064285 3.932917 34.074715  
2002-11-08 09:55:34 51°11.228 2°41.869 12.06783 3.933023 34.075734  
2002-11-08 09:55:39 51°11.228 2°41.867 12.068421 3.933023 34.075734  
2002-11-08 09:55:43 51°11.228 2°41.866 12.068421 3.933023 34.075734  
2002-11-08 09:55:48 51°11.228 2°41.865 12.068694 3.933444 34.078375  
2002-11-08 09:55:52 51°11.229 2°41.864 12.068649 3.933655 34.079696  
2002-11-08 09:55:59 51°11.229 2°41.862 12.06624 3.93355 34.07796  
2002-11-08 09:56:03 51°11.229 2°41.861 12.099229 3.934182 34.081205  
2002-11-08 09:56:09 51°11.229 2°41.859 12.059649 3.934077 34.078753  
2002-11-08 09:56:13 51°11.229 2°41.858 12.059649 3.934077 34.078753  
2002-11-08 09:56:19 51°11.229 2°41.856 12.055876 3.933761 34.075697  
2002-11-08 09:56:24 51°11.229 2°41.855 12.053921 3.934498 34.081394  
2002-11-08 09:56:28 51°11.229 2°41.854 12.05483 3.934288 34.08079  
2002-11-08 09:56:34 51°11.229 2°41.852 12.056603 3.932917 34.068981  
2002-11-08 09:56:39 51°11.229 2°41.851 12.058149 3.934499 34.086412  
2002-11-08 09:56:44 51°11.229 2°41.85 12.058149 3.934499 34.086412  
2002-11-08 09:56:48 51°11.229 2°41.848 12.060876 3.933866 34.083885  
2002-11-08 09:56:54 51°11.229 2°41.847 12.06324 3.934288 34.088677  
2002-11-08 09:56:59 51°11.229 2°41.846 12.065376 3.933866 34.086036  
2002-11-08 09:57:04 51°11.229 2°41.845 12.106952 3.933761 34.0843  
2002-11-08 09:57:08 51°11.229 2°41.844 12.071012 3.934393 34.090414  
2002-11-08 09:57:14 51°11.229 2°41.842 12.071012 3.934393 34.090414  
2002-11-08 09:57:19 51°11.229 2°41.841 12.068512 3.934709 34.091318  
2002-11-08 09:57:24 51°11.229 2°41.84 12.066376 3.934499 34.088564  
2002-11-08 09:57:28 51°11.229 2°41.839 12.067285 3.935342 34.09528  
2002-11-08 09:57:32 51°11.229 2°41.838 12.070103 3.935236 34.090675  
2002-11-08 09:57:39 51°11.229 2°41.837 12.071285 3.935131 34.088222  
2002-11-08 09:57:44 51°11.229 2°41.835 12.071285 3.935131 34.088222  
2002-11-08 09:57:48 51°11.229 2°41.835 12.071557 3.935658 34.092599  
2002-11-08 09:57:54 51°11.229 2°41.833 12.070966 3.935869 34.094636  
2002-11-08 09:57:59 51°11.229 2°41.832 12.070739 3.935974 34.094938  
2002-11-08 09:58:04 51°11.229 2°41.831 12.070966 3.936712 34.102069  
2002-11-08 09:58:08 51°11.229 2°41.83 12.071375 3.936712 34.101351  
2002-11-08 09:58:14 51°11.228 2°41.829 12.071375 3.936712 34.101351  
2002-11-08 09:58:19 51°11.229 2°41.828 12.07333 3.935764 34.0929  
2002-11-08 09:58:23 51°11.229 2°41.827 12.075466 3.936291 34.096559  
2002-11-08 09:58:28 51°11.228 2°41.825 12.076329 3.93608 34.095956  
2002-11-08 09:58:32 51°11.229 2°41.825 12.077874 3.936185 34.095541  
2002-11-08 09:58:39 51°11.229 2°41.823 12.079419 3.93608 34.094522  
2002-11-08 09:58:43 51°11.229 2°41.822 12.079419 3.93608 34.094522  
2002-11-08 09:58:49 51°11.229 2°41.82 12.082464 3.936396 34.096861  
2002-11-08 09:58:53 51°11.229 2°41.82 12.082918 3.936396 34.09471  
2002-11-08 09:58:59 51°11.229 2°41.818 12.083918 3.936607 34.095313  
2002-11-08 09:59:03 51°11.229 2°41.817 12.083872 3.936712 34.095615  
2002-11-08 09:59:08 51°11.229 2°41.816 12.083736 3.937029 34.09867  
2002-11-08 09:59:14 51°11.228 2°41.814 12.083736 3.937029 34.09867  
2002-11-08 09:59:19 51°11.228 2°41.814 12.083509 3.937345 34.100292  
2002-11-08 09:59:24 51°11.228 2°41.812 12.084509 3.938188 34.104854  
2002-11-08 09:59:28 51°11.228 2°41.812 12.085327 3.937977 34.102817  
2002-11-08 09:59:33 51°11.228 2°41.811 12.085645 3.937661 34.098328  
2002-11-08 09:59:39 51°11.228 2°41.809 12.083918 3.938294 34.105155  
2002-11-08 09:59:43 51°11.228 2°41.808 12.083918 3.938294 34.105155  
2002-11-08 09:59:48 51°11.228 2°41.807 12.082418 3.938504 34.107192  
2002-11-08 09:59:54 51°11.228 2°41.806 12.081828 3.938504 34.105758  
2002-11-08 09:59:59 51°11.228 2°41.805 12.07951 3.938926 34.109832  
2002-11-08 10:00:04 51°11.227 2°41.804 12.077556 3.939137 34.111151  
2002-11-08 10:00:08 51°11.227 2°41.803 12.08101 3.939137 34.111151  
2002-11-08 10:00:14 51°11.227 2°41.802 12.08101 3.939137 34.111151  
2002-11-08 10:00:19 51°11.227 2°41.8 12.082555 3.938821 34.108813  
2002-11-08 10:00:23 51°11.227 2°41.8 12.080601 3.939137 34.112586  
2002-11-08 10:00:28 51°11.228 2°41.799 12.078647 3.939031 34.113002